sensor_id;sensor_type;location;lat;lon;timestamp;P1;durP1;ratioP1;P2;durP2;ratioP2
45316;SDS011;31053;55.870;37.592;2023-12-20T00:01:57;0.98;;;0.50;;
45316;SDS011;31053;55.870;37.592;2023-12-20T00:05:02;0.90;;;0.60;;
45316;SDS011;31053;55.870;37.592;2023-12-20T00:08:08;1.48;;;0.77;;
45316;SDS011;31053;55.870;37.592;2023-12-20T00:11:14;2.70;;;1.02;;
45316;SDS011;31053;55.870;37.592;2023-12-20T00:14:18;3.15;;;1.00;;
45316;SDS011;31053;55.870;37.592;2023-12-20T00:17:23;1.05;;;0.90;;
45316;SDS011;31053;55.870;37.592;2023-12-20T00:20:28;3.00;;;1.00;;
45316;SDS011;31053;55.870;37.592;2023-12-20T00:23:33;0.95;;;0.80;;
45316;SDS011;31053;55.870;37.592;2023-12-20T00:26:37;1.13;;;0.98;;
45316;SDS011;31053;55.870;37.592;2023-12-20T00:29:44;3.58;;;1.30;;
45316;SDS011;31053;55.870;37.592;2023-12-20T00:32:52;2.95;;;1.02;;
45316;SDS011;31053;55.870;37.592;2023-12-20T00:35:57;1.58;;;0.95;;
45316;SDS011;31053;55.870;37.592;2023-12-20T00:39:01;2.28;;;1.13;;
45316;SDS011;31053;55.870;37.592;2023-12-20T00:42:06;6.15;;;0.85;;
45316;SDS011;31053;55.870;37.592;2023-12-20T00:45:11;4.25;;;1.20;;
45316;SDS011;31053;55.870;37.592;2023-12-20T00:48:16;2.17;;;0.65;;
45316;SDS011;31053;55.870;37.592;2023-12-20T00:51:20;1.20;;;0.65;;
45316;SDS011;31053;55.870;37.592;2023-12-20T00:54:26;0.80;;;0.80;;
45316;SDS011;31053;55.870;37.592;2023-12-20T00:57:31;7.20;;;1.17;;
45316;SDS011;31053;55.870;37.592;2023-12-20T01:00:35;1.40;;;0.75;;
45316;SDS011;31053;55.870;37.592;2023-12-20T01:03:40;2.85;;;0.80;;
45316;SDS011;31053;55.870;37.592;2023-12-20T01:06:45;2.30;;;1.00;;
45316;SDS011;31053;55.870;37.592;2023-12-20T01:09:50;2.47;;;1.15;;
45316;SDS011;31053;55.870;37.592;2023-12-20T01:12:55;3.00;;;0.98;;
45316;SDS011;31053;55.870;37.592;2023-12-20T01:16:00;3.78;;;1.83;;
45316;SDS011;31053;55.870;37.592;2023-12-20T01:19:10;1.90;;;1.13;;
45316;SDS011;31053;55.870;37.592;2023-12-20T01:22:15;3.03;;;0.90;;
45316;SDS011;31053;55.870;37.592;2023-12-20T01:25:20;2.50;;;1.40;;
45316;SDS011;31053;55.870;37.592;2023-12-20T01:28:26;1.98;;;1.30;;
45316;SDS011;31053;55.870;37.592;2023-12-20T01:31:31;3.80;;;1.33;;
45316;SDS011;31053;55.870;37.592;2023-12-20T01:34:36;1.70;;;1.10;;
45316;SDS011;31053;55.870;37.592;2023-12-20T01:37:41;3.00;;;1.45;;
45316;SDS011;31053;55.870;37.592;2023-12-20T01:40:46;1.90;;;1.40;;
45316;SDS011;31053;55.870;37.592;2023-12-20T01:43:50;4.93;;;1.48;;
45316;SDS011;31053;55.870;37.592;2023-12-20T01:46:56;3.25;;;1.88;;
45316;SDS011;31053;55.870;37.592;2023-12-20T01:50:01;3.85;;;2.10;;
45316;SDS011;31053;55.870;37.592;2023-12-20T01:53:09;3.00;;;1.92;;
45316;SDS011;31053;55.870;37.592;2023-12-20T01:56:15;4.18;;;1.80;;
45316;SDS011;31053;55.870;37.592;2023-12-20T01:59:20;4.00;;;2.00;;
45316;SDS011;31053;55.870;37.592;2023-12-20T02:02:26;3.22;;;1.90;;
45316;SDS011;31053;55.870;37.592;2023-12-20T02:05:32;3.40;;;1.80;;
45316;SDS011;31053;55.870;37.592;2023-12-20T02:08:38;3.08;;;2.08;;
45316;SDS011;31053;55.870;37.592;2023-12-20T02:11:43;2.92;;;2.03;;
45316;SDS011;31053;55.870;37.592;2023-12-20T02:14:48;2.47;;;1.60;;
45316;SDS011;31053;55.870;37.592;2023-12-20T02:17:54;3.60;;;1.38;;
45316;SDS011;31053;55.870;37.592;2023-12-20T02:21:18;4.85;;;1.83;;
45316;SDS011;31053;55.870;37.592;2023-12-20T02:24:29;3.03;;;1.60;;
45316;SDS011;31053;55.870;37.592;2023-12-20T02:27:34;6.45;;;2.00;;
45316;SDS011;31053;55.870;37.592;2023-12-20T02:30:39;5.32;;;1.45;;
45316;SDS011;31053;55.870;37.592;2023-12-20T02:33:44;2.10;;;1.33;;
45316;SDS011;31053;55.870;37.592;2023-12-20T02:36:49;2.08;;;1.25;;
45316;SDS011;31053;55.870;37.592;2023-12-20T02:39:54;2.58;;;1.20;;
45316;SDS011;31053;55.870;37.592;2023-12-20T02:42:58;6.00;;;1.52;;
45316;SDS011;31053;55.870;37.592;2023-12-20T02:46:03;2.30;;;1.10;;
45316;SDS011;31053;55.870;37.592;2023-12-20T02:49:07;7.65;;;1.08;;
45316;SDS011;31053;55.870;37.592;2023-12-20T02:52:12;1.67;;;1.10;;
45316;SDS011;31053;55.870;37.592;2023-12-20T02:55:17;5.35;;;1.08;;
45316;SDS011;31053;55.870;37.592;2023-12-20T02:58:22;1.45;;;1.08;;
45316;SDS011;31053;55.870;37.592;2023-12-20T03:01:27;5.82;;;1.00;;
45316;SDS011;31053;55.870;37.592;2023-12-20T03:04:32;1.30;;;0.90;;
45316;SDS011;31053;55.870;37.592;2023-12-20T03:07:37;2.15;;;0.65;;
45316;SDS011;31053;55.870;37.592;2023-12-20T03:10:42;4.05;;;0.90;;
45316;SDS011;31053;55.870;37.592;2023-12-20T03:13:47;0.77;;;0.50;;
45316;SDS011;31053;55.870;37.592;2023-12-20T03:16:52;3.72;;;0.70;;
45316;SDS011;31053;55.870;37.592;2023-12-20T03:19:56;0.65;;;0.65;;
45316;SDS011;31053;55.870;37.592;2023-12-20T03:23:01;7.35;;;1.20;;
45316;SDS011;31053;55.870;37.592;2023-12-20T03:26:08;3.67;;;1.23;;
45316;SDS011;31053;55.870;37.592;2023-12-20T03:29:13;5.80;;;1.48;;
45316;SDS011;31053;55.870;37.592;2023-12-20T03:32:17;4.07;;;1.33;;
45316;SDS011;31053;55.870;37.592;2023-12-20T03:35:22;9.88;;;1.45;;
45316;SDS011;31053;55.870;37.592;2023-12-20T03:38:26;4.32;;;1.30;;
45316;SDS011;31053;55.870;37.592;2023-12-20T03:41:31;2.92;;;1.50;;
45316;SDS011;31053;55.870;37.592;2023-12-20T03:44:38;3.05;;;1.35;;
45316;SDS011;31053;55.870;37.592;2023-12-20T03:47:44;4.68;;;1.40;;
45316;SDS011;31053;55.870;37.592;2023-12-20T03:50:49;4.60;;;1.45;;
45316;SDS011;31053;55.870;37.592;2023-12-20T03:53:53;4.78;;;0.85;;
45316;SDS011;31053;55.870;37.592;2023-12-20T03:56:58;1.40;;;1.00;;
45316;SDS011;31053;55.870;37.592;2023-12-20T04:00:03;1.50;;;0.95;;
45316;SDS011;31053;55.870;37.592;2023-12-20T04:03:16;2.17;;;1.40;;
45316;SDS011;31053;55.870;37.592;2023-12-20T04:06:21;3.22;;;1.13;;
45316;SDS011;31053;55.870;37.592;2023-12-20T04:09:26;3.50;;;1.50;;
45316;SDS011;31053;55.870;37.592;2023-12-20T04:12:31;8.02;;;1.63;;
45316;SDS011;31053;55.870;37.592;2023-12-20T04:15:35;4.07;;;1.40;;
45316;SDS011;31053;55.870;37.592;2023-12-20T04:18:40;4.45;;;1.65;;
45316;SDS011;31053;55.870;37.592;2023-12-20T04:21:45;3.28;;;1.52;;
45316;SDS011;31053;55.870;37.592;2023-12-20T04:24:50;6.68;;;1.73;;
45316;SDS011;31053;55.870;37.592;2023-12-20T04:27:55;3.10;;;1.85;;
45316;SDS011;31053;55.870;37.592;2023-12-20T04:30:59;3.95;;;2.33;;
45316;SDS011;31053;55.870;37.592;2023-12-20T04:34:03;3.95;;;1.95;;
45316;SDS011;31053;55.870;37.592;2023-12-20T04:37:08;3.42;;;2.13;;
45316;SDS011;31053;55.870;37.592;2023-12-20T04:40:12;7.28;;;2.03;;
45316;SDS011;31053;55.870;37.592;2023-12-20T04:43:17;4.15;;;1.80;;
45316;SDS011;31053;55.870;37.592;2023-12-20T04:46:22;5.07;;;2.08;;
45316;SDS011;31053;55.870;37.592;2023-12-20T04:49:27;7.43;;;1.98;;
45316;SDS011;31053;55.870;37.592;2023-12-20T04:52:32;2.47;;;1.40;;
45316;SDS011;31053;55.870;37.592;2023-12-20T04:55:36;6.75;;;1.90;;
45316;SDS011;31053;55.870;37.592;2023-12-20T04:58:42;2.63;;;1.63;;
45316;SDS011;31053;55.870;37.592;2023-12-20T05:01:47;3.78;;;1.38;;
45316;SDS011;31053;55.870;37.592;2023-12-20T05:04:51;2.28;;;1.45;;
45316;SDS011;31053;55.870;37.592;2023-12-20T05:07:59;4.43;;;1.50;;
45316;SDS011;31053;55.870;37.592;2023-12-20T05:11:10;7.07;;;1.70;;
45316;SDS011;31053;55.870;37.592;2023-12-20T05:14:15;8.30;;;2.00;;
45316;SDS011;31053;55.870;37.592;2023-12-20T05:17:20;3.42;;;1.38;;
45316;SDS011;31053;55.870;37.592;2023-12-20T05:20:24;3.45;;;1.95;;
45316;SDS011;31053;55.870;37.592;2023-12-20T05:23:29;7.93;;;1.88;;
45316;SDS011;31053;55.870;37.592;2023-12-20T05:26:34;2.28;;;1.58;;
45316;SDS011;31053;55.870;37.592;2023-12-20T05:29:38;4.90;;;1.50;;
45316;SDS011;31053;55.870;37.592;2023-12-20T05:32:43;6.10;;;1.90;;
45316;SDS011;31053;55.870;37.592;2023-12-20T05:35:48;3.38;;;2.03;;
45316;SDS011;31053;55.870;37.592;2023-12-20T05:38:53;3.30;;;1.55;;
45316;SDS011;31053;55.870;37.592;2023-12-20T05:41:57;7.35;;;1.88;;
45316;SDS011;31053;55.870;37.592;2023-12-20T05:45:02;4.13;;;1.30;;
45316;SDS011;31053;55.870;37.592;2023-12-20T05:51:13;5.40;;;1.70;;
45316;SDS011;31053;55.870;37.592;2023-12-20T05:54:17;7.97;;;3.17;;
45316;SDS011;31053;55.870;37.592;2023-12-20T05:57:22;4.85;;;1.85;;
45316;SDS011;31053;55.870;37.592;2023-12-20T06:00:27;12.75;;;2.20;;
45316;SDS011;31053;55.870;37.592;2023-12-20T06:03:32;8.45;;;3.17;;
45316;SDS011;31053;55.870;37.592;2023-12-20T06:06:43;10.65;;;2.78;;
45316;SDS011;31053;55.870;37.592;2023-12-20T06:09:49;13.05;;;2.83;;
45316;SDS011;31053;55.870;37.592;2023-12-20T06:12:54;5.57;;;2.70;;
45316;SDS011;31053;55.870;37.592;2023-12-20T06:16:00;12.02;;;3.08;;
45316;SDS011;31053;55.870;37.592;2023-12-20T06:19:04;15.45;;;3.15;;
45316;SDS011;31053;55.870;37.592;2023-12-20T06:22:09;6.57;;;2.47;;
45316;SDS011;31053;55.870;37.592;2023-12-20T06:25:15;8.35;;;3.03;;
45316;SDS011;31053;55.870;37.592;2023-12-20T06:28:20;6.93;;;2.83;;
45316;SDS011;31053;55.870;37.592;2023-12-20T06:31:24;10.73;;;4.03;;
45316;SDS011;31053;55.870;37.592;2023-12-20T06:34:29;5.78;;;2.95;;
45316;SDS011;31053;55.870;37.592;2023-12-20T06:37:34;6.63;;;2.80;;
45316;SDS011;31053;55.870;37.592;2023-12-20T06:40:42;10.27;;;2.78;;
45316;SDS011;31053;55.870;37.592;2023-12-20T06:43:47;11.40;;;3.30;;
45316;SDS011;31053;55.870;37.592;2023-12-20T06:46:52;4.50;;;2.55;;
45316;SDS011;31053;55.870;37.592;2023-12-20T06:49:57;4.57;;;2.38;;
45316;SDS011;31053;55.870;37.592;2023-12-20T06:53:01;6.00;;;2.42;;
45316;SDS011;31053;55.870;37.592;2023-12-20T06:56:11;5.05;;;2.53;;
45316;SDS011;31053;55.870;37.592;2023-12-20T06:59:16;12.82;;;2.70;;
45316;SDS011;31053;55.870;37.592;2023-12-20T07:02:21;5.97;;;2.95;;
45316;SDS011;31053;55.870;37.592;2023-12-20T07:05:26;9.52;;;2.60;;
45316;SDS011;31053;55.870;37.592;2023-12-20T07:08:31;8.85;;;2.75;;
45316;SDS011;31053;55.870;37.592;2023-12-20T07:11:35;9.00;;;2.85;;
45316;SDS011;31053;55.870;37.592;2023-12-20T07:14:41;3.75;;;2.05;;
45316;SDS011;31053;55.870;37.592;2023-12-20T07:17:45;3.90;;;1.80;;
45316;SDS011;31053;55.870;37.592;2023-12-20T07:20:50;6.70;;;2.67;;
45316;SDS011;31053;55.870;37.592;2023-12-20T07:23:55;14.77;;;3.05;;
45316;SDS011;31053;55.870;37.592;2023-12-20T07:27:00;4.03;;;1.75;;
45316;SDS011;31053;55.870;37.592;2023-12-20T07:30:06;4.57;;;2.10;;
45316;SDS011;31053;55.870;37.592;2023-12-20T07:33:11;3.97;;;1.88;;
45316;SDS011;31053;55.870;37.592;2023-12-20T07:36:16;6.43;;;2.57;;
45316;SDS011;31053;55.870;37.592;2023-12-20T07:39:21;11.35;;;2.95;;
45316;SDS011;31053;55.870;37.592;2023-12-20T07:42:26;4.72;;;2.10;;
45316;SDS011;31053;55.870;37.592;2023-12-20T07:45:31;3.55;;;1.92;;
45316;SDS011;31053;55.870;37.592;2023-12-20T07:48:36;6.18;;;2.45;;
45316;SDS011;31053;55.870;37.592;2023-12-20T07:51:45;6.57;;;2.95;;
45316;SDS011;31053;55.870;37.592;2023-12-20T07:54:50;2.63;;;1.50;;
45316;SDS011;31053;55.870;37.592;2023-12-20T07:57:55;7.57;;;1.85;;
45316;SDS011;31053;55.870;37.592;2023-12-20T08:01:00;3.22;;;1.73;;
45316;SDS011;31053;55.870;37.592;2023-12-20T08:04:05;11.50;;;1.98;;
45316;SDS011;31053;55.870;37.592;2023-12-20T08:07:10;5.35;;;1.35;;
45316;SDS011;31053;55.870;37.592;2023-12-20T08:10:15;3.63;;;1.47;;
45316;SDS011;31053;55.870;37.592;2023-12-20T08:13:20;2.55;;;1.40;;
45316;SDS011;31053;55.870;37.592;2023-12-20T08:16:30;3.95;;;2.20;;
45316;SDS011;31053;55.870;37.592;2023-12-20T08:19:35;4.85;;;2.17;;
45316;SDS011;31053;55.870;37.592;2023-12-20T08:22:39;6.18;;;1.83;;
45316;SDS011;31053;55.870;37.592;2023-12-20T08:25:44;8.15;;;1.85;;
45316;SDS011;31053;55.870;37.592;2023-12-20T08:28:50;4.55;;;1.70;;
45316;SDS011;31053;55.870;37.592;2023-12-20T08:31:55;3.83;;;1.83;;
45316;SDS011;31053;55.870;37.592;2023-12-20T08:35:00;9.90;;;2.42;;
45316;SDS011;31053;55.870;37.592;2023-12-20T08:38:05;9.50;;;2.05;;
45316;SDS011;31053;55.870;37.592;2023-12-20T08:41:11;5.32;;;1.85;;
45316;SDS011;31053;55.870;37.592;2023-12-20T08:44:16;5.13;;;1.75;;
45316;SDS011;31053;55.870;37.592;2023-12-20T08:47:21;4.43;;;2.00;;
45316;SDS011;31053;55.870;37.592;2023-12-20T08:50:25;3.75;;;1.55;;
45316;SDS011;31053;55.870;37.592;2023-12-20T08:53:30;5.68;;;2.10;;
45316;SDS011;31053;55.870;37.592;2023-12-20T08:56:35;5.28;;;2.08;;
45316;SDS011;31053;55.870;37.592;2023-12-20T08:59:40;3.50;;;1.70;;
45316;SDS011;31053;55.870;37.592;2023-12-20T09:02:45;6.30;;;2.00;;
45316;SDS011;31053;55.870;37.592;2023-12-20T09:05:50;9.40;;;2.25;;
45316;SDS011;31053;55.870;37.592;2023-12-20T09:08:55;4.00;;;2.33;;
45316;SDS011;31053;55.870;37.592;2023-12-20T09:12:00;3.33;;;1.92;;
45316;SDS011;31053;55.870;37.592;2023-12-20T09:15:05;7.28;;;2.10;;
45316;SDS011;31053;55.870;37.592;2023-12-20T09:18:10;5.25;;;1.83;;
45316;SDS011;31053;55.870;37.592;2023-12-20T09:21:15;2.88;;;1.70;;
45316;SDS011;31053;55.870;37.592;2023-12-20T09:24:20;4.80;;;2.00;;
45316;SDS011;31053;55.870;37.592;2023-12-20T09:27:28;2.70;;;1.52;;
45316;SDS011;31053;55.870;37.592;2023-12-20T09:30:33;4.13;;;1.90;;
45316;SDS011;31053;55.870;37.592;2023-12-20T09:33:40;7.10;;;2.33;;
45316;SDS011;31053;55.870;37.592;2023-12-20T09:36:45;3.15;;;1.77;;
45316;SDS011;31053;55.870;37.592;2023-12-20T09:39:51;5.43;;;1.70;;
45316;SDS011;31053;55.870;37.592;2023-12-20T09:42:57;3.08;;;1.48;;
45316;SDS011;31053;55.870;37.592;2023-12-20T09:46:05;3.08;;;1.60;;
45316;SDS011;31053;55.870;37.592;2023-12-20T09:49:12;3.17;;;1.90;;
45316;SDS011;31053;55.870;37.592;2023-12-20T09:55:23;2.45;;;1.25;;
45316;SDS011;31053;55.870;37.592;2023-12-20T09:58:31;7.85;;;1.60;;
45316;SDS011;31053;55.870;37.592;2023-12-20T10:01:41;6.22;;;1.40;;
45316;SDS011;31053;55.870;37.592;2023-12-20T10:08:42;8.63;;;2.00;;
45316;SDS011;31053;55.870;37.592;2023-12-20T10:14:53;2.47;;;1.52;;
45316;SDS011;31053;55.870;37.592;2023-12-20T10:17:59;6.72;;;1.75;;
45316;SDS011;31053;55.870;37.592;2023-12-20T10:21:05;2.47;;;1.48;;
45316;SDS011;31053;55.870;37.592;2023-12-20T10:24:19;6.03;;;1.40;;
45316;SDS011;31053;55.870;37.592;2023-12-20T10:30:39;3.53;;;1.67;;
45316;SDS011;31053;55.870;37.592;2023-12-20T10:33:45;3.15;;;1.55;;
45316;SDS011;31053;55.870;37.592;2023-12-20T10:36:51;3.15;;;1.60;;
45316;SDS011;31053;55.870;37.592;2023-12-20T10:39:58;3.38;;;1.85;;
45316;SDS011;31053;55.870;37.592;2023-12-20T10:43:05;7.65;;;2.00;;
45316;SDS011;31053;55.870;37.592;2023-12-20T10:46:13;6.53;;;1.95;;
45316;SDS011;31053;55.870;37.592;2023-12-20T10:49:18;2.00;;;1.48;;
45316;SDS011;31053;55.870;37.592;2023-12-20T10:52:23;7.80;;;2.53;;
45316;SDS011;31053;55.870;37.592;2023-12-20T10:55:31;2.72;;;1.60;;
45316;SDS011;31053;55.870;37.592;2023-12-20T10:58:39;7.88;;;1.58;;
45316;SDS011;31053;55.870;37.592;2023-12-20T11:01:48;6.85;;;2.28;;
45316;SDS011;31053;55.870;37.592;2023-12-20T11:08:32;2.83;;;1.60;;
45316;SDS011;31053;55.870;37.592;2023-12-20T11:15:04;7.15;;;1.75;;
45316;SDS011;31053;55.870;37.592;2023-12-20T11:18:13;5.45;;;1.75;;
45316;SDS011;31053;55.870;37.592;2023-12-20T11:21:20;1.98;;;1.40;;
45316;SDS011;31053;55.870;37.592;2023-12-20T11:24:25;3.17;;;1.27;;
45316;SDS011;31053;55.870;37.592;2023-12-20T11:27:30;4.47;;;2.05;;
45316;SDS011;31053;55.870;37.592;2023-12-20T11:30:48;2.75;;;1.10;;
45316;SDS011;31053;55.870;37.592;2023-12-20T11:34:12;3.83;;;1.13;;
45316;SDS011;31053;55.870;37.592;2023-12-20T11:37:19;6.13;;;1.75;;
45316;SDS011;31053;55.870;37.592;2023-12-20T11:40:24;13.95;;;2.00;;
45316;SDS011;31053;55.870;37.592;2023-12-20T11:43:36;2.83;;;1.45;;
45316;SDS011;31053;55.870;37.592;2023-12-20T11:46:48;1.90;;;1.20;;
45316;SDS011;31053;55.870;37.592;2023-12-20T11:49:56;3.10;;;1.23;;
45316;SDS011;31053;55.870;37.592;2023-12-20T11:53:01;3.17;;;1.30;;
45316;SDS011;31053;55.870;37.592;2023-12-20T11:56:06;8.20;;;1.35;;
45316;SDS011;31053;55.870;37.592;2023-12-20T11:59:13;2.40;;;0.98;;
45316;SDS011;31053;55.870;37.592;2023-12-20T12:02:24;3.13;;;1.83;;
45316;SDS011;31053;55.870;37.592;2023-12-20T12:05:30;2.22;;;0.90;;
45316;SDS011;31053;55.870;37.592;2023-12-20T12:08:38;2.92;;;1.35;;
45316;SDS011;31053;55.870;37.592;2023-12-20T12:11:44;3.83;;;1.33;;
45316;SDS011;31053;55.870;37.592;2023-12-20T12:14:54;2.78;;;1.23;;
45316;SDS011;31053;55.870;37.592;2023-12-20T12:18:29;4.53;;;1.20;;
45316;SDS011;31053;55.870;37.592;2023-12-20T12:21:34;2.20;;;1.10;;
45316;SDS011;31053;55.870;37.592;2023-12-20T12:24:39;3.28;;;1.38;;
45316;SDS011;31053;55.870;37.592;2023-12-20T12:27:47;1.92;;;1.10;;
45316;SDS011;31053;55.870;37.592;2023-12-20T12:31:00;1.58;;;1.02;;
45316;SDS011;31053;55.870;37.592;2023-12-20T12:34:06;4.35;;;1.00;;
45316;SDS011;31053;55.870;37.592;2023-12-20T12:37:13;1.65;;;1.05;;
45316;SDS011;31053;55.870;37.592;2023-12-20T12:40:20;4.57;;;1.58;;
45316;SDS011;31053;55.870;37.592;2023-12-20T12:43:30;3.08;;;1.23;;
45316;SDS011;31053;55.870;37.592;2023-12-20T12:46:35;1.48;;;1.00;;
45316;SDS011;31053;55.870;37.592;2023-12-20T12:49:40;2.65;;;1.25;;
45316;SDS011;31053;55.870;37.592;2023-12-20T12:55:57;3.53;;;1.80;;
45316;SDS011;31053;55.870;37.592;2023-12-20T12:59:02;3.28;;;1.42;;
45316;SDS011;31053;55.870;37.592;2023-12-20T13:02:07;3.45;;;1.23;;
45316;SDS011;31053;55.870;37.592;2023-12-20T13:05:55;3.28;;;1.30;;
45316;SDS011;31053;55.870;37.592;2023-12-20T13:13:09;3.75;;;1.08;;
45316;SDS011;31053;55.870;37.592;2023-12-20T13:16:14;6.43;;;1.17;;
45316;SDS011;31053;55.870;37.592;2023-12-20T13:19:21;5.13;;;1.35;;
45316;SDS011;31053;55.870;37.592;2023-12-20T13:22:29;2.75;;;1.65;;
45316;SDS011;31053;55.870;37.592;2023-12-20T13:25:33;6.28;;;1.42;;
45316;SDS011;31053;55.870;37.592;2023-12-20T13:28:39;5.07;;;1.48;;
45316;SDS011;31053;55.870;37.592;2023-12-20T13:31:49;4.00;;;1.70;;
45316;SDS011;31053;55.870;37.592;2023-12-20T13:34:55;3.25;;;1.40;;
45316;SDS011;31053;55.870;37.592;2023-12-20T13:38:04;3.72;;;1.60;;
45316;SDS011;31053;55.870;37.592;2023-12-20T13:41:09;4.18;;;1.45;;
45316;SDS011;31053;55.870;37.592;2023-12-20T13:44:14;5.43;;;1.50;;
45316;SDS011;31053;55.870;37.592;2023-12-20T13:47:19;1.83;;;1.25;;
45316;SDS011;31053;55.870;37.592;2023-12-20T13:50:24;2.90;;;1.55;;
45316;SDS011;31053;55.870;37.592;2023-12-20T13:53:28;6.40;;;1.40;;
45316;SDS011;31053;55.870;37.592;2023-12-20T13:56:34;3.97;;;1.77;;
45316;SDS011;31053;55.870;37.592;2023-12-20T13:59:38;1.77;;;1.13;;
45316;SDS011;31053;55.870;37.592;2023-12-20T14:02:43;3.58;;;1.40;;
45316;SDS011;31053;55.870;37.592;2023-12-20T14:05:48;7.57;;;1.33;;
45316;SDS011;31053;55.870;37.592;2023-12-20T14:08:53;4.28;;;1.38;;
45316;SDS011;31053;55.870;37.592;2023-12-20T14:12:07;4.68;;;1.50;;
45316;SDS011;31053;55.870;37.592;2023-12-20T14:15:15;6.55;;;1.92;;
45316;SDS011;31053;55.870;37.592;2023-12-20T14:18:20;4.68;;;1.77;;
45316;SDS011;31053;55.870;37.592;2023-12-20T14:21:25;10.98;;;1.80;;
45316;SDS011;31053;55.870;37.592;2023-12-20T14:24:30;10.20;;;2.38;;
45316;SDS011;31053;55.870;37.592;2023-12-20T14:30:42;7.93;;;1.55;;
45316;SDS011;31053;55.870;37.592;2023-12-20T14:33:47;7.82;;;1.65;;
45316;SDS011;31053;55.870;37.592;2023-12-20T14:37:00;9.48;;;2.00;;
45316;SDS011;31053;55.870;37.592;2023-12-20T14:40:15;10.90;;;1.90;;
45316;SDS011;31053;55.870;37.592;2023-12-20T14:43:25;7.45;;;2.58;;
45316;SDS011;31053;55.870;37.592;2023-12-20T14:46:51;7.35;;;1.90;;
45316;SDS011;31053;55.870;37.592;2023-12-20T14:49:56;9.45;;;2.42;;
45316;SDS011;31053;55.870;37.592;2023-12-20T14:53:01;13.73;;;3.33;;
45316;SDS011;31053;55.870;37.592;2023-12-20T14:56:13;9.55;;;2.22;;
45316;SDS011;31053;55.870;37.592;2023-12-20T14:59:18;7.93;;;1.70;;
45316;SDS011;31053;55.870;37.592;2023-12-20T15:02:24;11.88;;;2.42;;
45316;SDS011;31053;55.870;37.592;2023-12-20T15:05:29;6.97;;;1.90;;
45316;SDS011;31053;55.870;37.592;2023-12-20T15:08:33;8.00;;;2.00;;
45316;SDS011;31053;55.870;37.592;2023-12-20T15:11:47;3.13;;;2.08;;
45316;SDS011;31053;55.870;37.592;2023-12-20T15:14:52;5.05;;;1.65;;
45316;SDS011;31053;55.870;37.592;2023-12-20T15:17:59;2.17;;;1.42;;
45316;SDS011;31053;55.870;37.592;2023-12-20T15:21:08;10.27;;;2.72;;
45316;SDS011;31053;55.870;37.592;2023-12-20T15:24:13;2.60;;;1.25;;
45316;SDS011;31053;55.870;37.592;2023-12-20T15:27:34;2.90;;;1.30;;
45316;SDS011;31053;55.870;37.592;2023-12-20T15:30:59;5.50;;;1.48;;
45316;SDS011;31053;55.870;37.592;2023-12-20T15:34:37;2.17;;;1.20;;
45316;SDS011;31053;55.870;37.592;2023-12-20T15:37:43;6.90;;;1.92;;
45316;SDS011;31053;55.870;37.592;2023-12-20T15:40:47;2.40;;;1.40;;
45316;SDS011;31053;55.870;37.592;2023-12-20T15:43:52;3.17;;;1.55;;
45316;SDS011;31053;55.870;37.592;2023-12-20T15:46:58;2.53;;;1.52;;
45316;SDS011;31053;55.870;37.592;2023-12-20T15:50:05;2.33;;;1.45;;
45316;SDS011;31053;55.870;37.592;2023-12-20T15:53:17;2.75;;;1.83;;
45316;SDS011;31053;55.870;37.592;2023-12-20T15:56:25;1.75;;;1.20;;
45316;SDS011;31053;55.870;37.592;2023-12-20T15:59:30;1.75;;;1.23;;
45316;SDS011;31053;55.870;37.592;2023-12-20T16:02:35;1.80;;;1.10;;
45316;SDS011;31053;55.870;37.592;2023-12-20T16:05:40;2.65;;;1.73;;
45316;SDS011;31053;55.870;37.592;2023-12-20T16:08:45;3.25;;;1.50;;
45316;SDS011;31053;55.870;37.592;2023-12-20T16:11:51;2.25;;;1.17;;
45316;SDS011;31053;55.870;37.592;2023-12-20T16:14:56;4.13;;;1.70;;
45316;SDS011;31053;55.870;37.592;2023-12-20T16:18:08;2.92;;;1.40;;
45316;SDS011;31053;55.870;37.592;2023-12-20T16:21:16;3.33;;;1.73;;
45316;SDS011;31053;55.870;37.592;2023-12-20T16:24:25;3.75;;;1.58;;
45316;SDS011;31053;55.870;37.592;2023-12-20T16:27:30;2.72;;;1.50;;
45316;SDS011;31053;55.870;37.592;2023-12-20T16:30:35;3.80;;;2.17;;
45316;SDS011;31053;55.870;37.592;2023-12-20T16:33:40;6.28;;;2.40;;
45316;SDS011;31053;55.870;37.592;2023-12-20T16:36:50;6.28;;;2.10;;
45316;SDS011;31053;55.870;37.592;2023-12-20T16:39:56;3.33;;;1.80;;
45316;SDS011;31053;55.870;37.592;2023-12-20T16:43:04;5.13;;;2.42;;
45316;SDS011;31053;55.870;37.592;2023-12-20T16:46:09;3.00;;;1.83;;
45316;SDS011;31053;55.870;37.592;2023-12-20T16:49:14;4.20;;;1.90;;
45316;SDS011;31053;55.870;37.592;2023-12-20T16:52:19;3.00;;;1.70;;
45316;SDS011;31053;55.870;37.592;2023-12-20T16:55:24;4.95;;;1.77;;
45316;SDS011;31053;55.870;37.592;2023-12-20T16:58:29;5.95;;;2.28;;
45316;SDS011;31053;55.870;37.592;2023-12-20T17:01:34;4.40;;;1.67;;
45316;SDS011;31053;55.870;37.592;2023-12-20T17:04:50;4.43;;;2.10;;
45316;SDS011;31053;55.870;37.592;2023-12-20T17:07:55;2.58;;;1.65;;
45316;SDS011;31053;55.870;37.592;2023-12-20T17:11:02;3.35;;;2.05;;
45316;SDS011;31053;55.870;37.592;2023-12-20T17:14:07;7.63;;;1.20;;
45316;SDS011;31053;55.870;37.592;2023-12-20T17:17:14;2.60;;;1.45;;
45316;SDS011;31053;55.870;37.592;2023-12-20T17:20:22;1.92;;;1.27;;
45316;SDS011;31053;55.870;37.592;2023-12-20T17:23:27;2.95;;;1.42;;
45316;SDS011;31053;55.870;37.592;2023-12-20T17:26:31;2.63;;;1.17;;
45316;SDS011;31053;55.870;37.592;2023-12-20T17:29:36;1.38;;;0.93;;
45316;SDS011;31053;55.870;37.592;2023-12-20T17:32:41;1.17;;;1.00;;
45316;SDS011;31053;55.870;37.592;2023-12-20T17:35:53;3.25;;;1.10;;
45316;SDS011;31053;55.870;37.592;2023-12-20T17:38:57;2.72;;;1.20;;
45316;SDS011;31053;55.870;37.592;2023-12-20T17:42:02;3.30;;;0.98;;
45316;SDS011;31053;55.870;37.592;2023-12-20T17:45:07;2.70;;;1.10;;
45316;SDS011;31053;55.870;37.592;2023-12-20T17:48:12;1.73;;;0.80;;
45316;SDS011;31053;55.870;37.592;2023-12-20T17:51:17;1.60;;;0.70;;
45316;SDS011;31053;55.870;37.592;2023-12-20T17:54:21;1.65;;;0.88;;
45316;SDS011;31053;55.870;37.592;2023-12-20T17:57:34;2.13;;;0.95;;
45316;SDS011;31053;55.870;37.592;2023-12-20T18:00:39;3.15;;;0.95;;
45316;SDS011;31053;55.870;37.592;2023-12-20T18:03:44;2.90;;;1.13;;
45316;SDS011;31053;55.870;37.592;2023-12-20T18:06:49;3.45;;;1.00;;
45316;SDS011;31053;55.870;37.592;2023-12-20T18:09:54;3.03;;;0.70;;
45316;SDS011;31053;55.870;37.592;2023-12-20T18:12:59;3.13;;;0.90;;
45316;SDS011;31053;55.870;37.592;2023-12-20T18:16:04;7.15;;;0.90;;
45316;SDS011;31053;55.870;37.592;2023-12-20T18:19:14;2.75;;;1.08;;
45316;SDS011;31053;55.870;37.592;2023-12-20T18:22:21;2.97;;;1.15;;
45316;SDS011;31053;55.870;37.592;2023-12-20T18:25:26;3.90;;;0.95;;
45316;SDS011;31053;55.870;37.592;2023-12-20T18:28:31;2.45;;;0.93;;
45316;SDS011;31053;55.870;37.592;2023-12-20T18:31:36;7.50;;;1.08;;
45316;SDS011;31053;55.870;37.592;2023-12-20T18:34:41;2.65;;;0.90;;
45316;SDS011;31053;55.870;37.592;2023-12-20T18:37:46;1.58;;;0.82;;
45316;SDS011;31053;55.870;37.592;2023-12-20T18:40:51;3.20;;;0.85;;
45316;SDS011;31053;55.870;37.592;2023-12-20T18:43:56;3.03;;;0.82;;
45316;SDS011;31053;55.870;37.592;2023-12-20T18:47:01;1.55;;;0.70;;
45316;SDS011;31053;55.870;37.592;2023-12-20T18:50:05;1.58;;;0.73;;
45316;SDS011;31053;55.870;37.592;2023-12-20T18:53:12;4.15;;;0.80;;
45316;SDS011;31053;55.870;37.592;2023-12-20T18:56:18;3.88;;;0.80;;
45316;SDS011;31053;55.870;37.592;2023-12-20T18:59:26;1.58;;;0.52;;